createdAt,value
2022-12-26T00:02:12.399Z,2.20
2022-12-26T00:04:52.024Z,2.20
2022-12-26T00:07:24.889Z,2.20
2022-12-26T00:09:56.713Z,2.20
2022-12-26T00:12:28.466Z,2.20
2022-12-26T00:15:00.295Z,2.30
2022-12-26T00:17:32.083Z,2.30
2022-12-26T00:20:04.105Z,2.30
2022-12-26T00:22:35.888Z,2.30
2022-12-26T00:25:10.182Z,2.30
2022-12-26T00:27:41.958Z,2.40
2022-12-26T00:30:13.822Z,2.40
2022-12-26T00:32:45.587Z,2.40
2022-12-26T00:35:19.485Z,2.40
2022-12-26T00:37:51.221Z,2.40
2022-12-26T00:40:23.016Z,2.40
2022-12-26T00:42:54.788Z,2.40
2022-12-26T00:45:26.648Z,2.40
2022-12-26T00:47:58.408Z,2.40
2022-12-26T00:50:34.898Z,2.40
2022-12-26T00:53:06.946Z,2.40
2022-12-26T00:55:38.852Z,2.40
2022-12-26T00:58:12.951Z,2.40
2022-12-26T01:00:44.894Z,2.40
2022-12-26T01:03:17.298Z,2.50
2022-12-26T01:05:50.381Z,2.50
2022-12-26T01:08:24.891Z,2.50
2022-12-26T01:10:57.044Z,2.50
2022-12-26T01:13:28.808Z,2.50
2022-12-26T01:16:03.358Z,2.50
2022-12-26T01:18:35.659Z,2.50
2022-12-26T01:21:08.739Z,2.50
2022-12-26T01:23:40.492Z,2.50
2022-12-26T01:26:19.693Z,2.50
2022-12-26T01:28:52.542Z,2.50
2022-12-26T01:31:24.420Z,2.50
2022-12-26T01:33:56.407Z,2.50
2022-12-26T01:36:28.234Z,2.50
2022-12-26T01:39:00.098Z,2.60
2022-12-26T01:41:33.400Z,2.60
2022-12-26T01:44:06.485Z,2.60
2022-12-26T01:46:40.800Z,2.60
2022-12-26T01:49:27.457Z,2.60
2022-12-26T01:52:04.187Z,2.60
2022-12-26T01:54:42.368Z,2.60
2022-12-26T01:57:21.799Z,2.70
2022-12-26T01:59:54.410Z,2.70
2022-12-26T02:02:27.783Z,2.70
2022-12-26T02:05:20.775Z,2.70
2022-12-26T02:07:52.787Z,2.60
2022-12-26T02:10:26.663Z,2.70
2022-12-26T02:13:01.355Z,2.70
2022-12-26T02:15:33.331Z,2.70
2022-12-26T02:18:05.127Z,2.70
2022-12-26T02:20:59.979Z,2.70
2022-12-26T02:23:44.374Z,2.70
2022-12-26T02:26:16.103Z,2.70
2022-12-26T02:29:06.760Z,2.70
2022-12-26T02:31:44.428Z,2.70
2022-12-26T02:34:20.956Z,2.70
2022-12-26T02:37:12.049Z,2.70
2022-12-26T02:39:55.144Z,2.70
2022-12-26T02:42:42.067Z,2.60
2022-12-26T02:45:32.367Z,2.70
2022-12-26T02:48:23.335Z,2.70
2022-12-26T02:51:16.735Z,2.70
2022-12-26T02:54:39.076Z,2.70
2022-12-26T02:57:32.178Z,2.70
2022-12-26T03:00:39.237Z,2.70
2022-12-26T03:03:32.474Z,2.70
2022-12-26T03:06:22.711Z,2.70
2022-12-26T03:09:19.101Z,2.70
2022-12-26T03:12:15.301Z,2.70
2022-12-26T03:14:52.485Z,2.70
2022-12-26T03:17:33.737Z,2.70
2022-12-26T03:20:08.833Z,2.70
2022-12-26T03:22:46.356Z,2.70
2022-12-26T03:25:42.849Z,2.70
2022-12-26T03:28:16.959Z,2.70
2022-12-26T03:30:52.150Z,2.80
2022-12-26T03:33:44.200Z,2.90
2022-12-26T03:36:20.969Z,2.90
2022-12-26T03:39:13.909Z,3.00
2022-12-26T03:42:07.157Z,3.00
2022-12-26T03:45:03.405Z,3.10
2022-12-26T03:47:59.718Z,3.10
2022-12-26T03:50:56.676Z,3.10
2022-12-26T03:54:02.522Z,3.10
2022-12-26T03:56:57.098Z,3.20
2022-12-26T03:59:50.580Z,3.20
2022-12-26T04:02:41.276Z,3.20
2022-12-26T04:05:33.785Z,3.30
2022-12-26T04:08:26.575Z,3.20
2022-12-26T04:11:17.777Z,3.20
2022-12-26T04:14:08.346Z,3.20
2022-12-26T04:17:04.890Z,3.20
2022-12-26T04:19:55.343Z,3.20
2022-12-26T04:22:49.330Z,3.20
2022-12-26T04:25:50.456Z,3.20
2022-12-26T04:28:42.032Z,3.20
2022-12-26T04:31:32.433Z,3.30
2022-12-26T04:34:26.469Z,3.20
2022-12-26T04:37:18.633Z,3.20
2022-12-26T04:40:10.080Z,3.30
2022-12-26T04:43:01.672Z,3.20
2022-12-26T04:45:54.672Z,3.20
2022-12-26T04:48:45.041Z,3.30
2022-12-26T04:51:16.834Z,3.20
2022-12-26T04:53:48.649Z,3.30
2022-12-26T04:56:23.322Z,3.30
2022-12-26T04:58:55.140Z,3.30
2022-12-26T05:01:45.754Z,3.30
2022-12-26T05:04:36.840Z,3.30
2022-12-26T05:07:33.644Z,3.30
2022-12-26T05:10:07.001Z,3.40
2022-12-26T05:12:38.729Z,3.40
2022-12-26T05:15:11.119Z,3.40
2022-12-26T05:18:01.321Z,3.40
2022-12-26T05:20:51.568Z,3.40
2022-12-26T05:23:43.046Z,3.40
2022-12-26T05:26:40.064Z,3.40
2022-12-26T05:29:11.907Z,3.40
2022-12-26T05:31:43.880Z,3.40
2022-12-26T05:34:17.613Z,3.40
2022-12-26T05:36:53.562Z,3.50
2022-12-26T05:39:25.602Z,3.50
2022-12-26T05:41:57.381Z,3.50
2022-12-26T05:44:31.707Z,3.50
2022-12-26T05:47:03.546Z,3.50
2022-12-26T05:49:37.668Z,3.50
2022-12-26T05:52:09.497Z,3.60
2022-12-26T05:54:41.239Z,3.60
2022-12-26T05:57:15.143Z,3.60
2022-12-26T05:59:46.903Z,3.60
2022-12-26T06:02:21.145Z,3.60
2022-12-26T06:04:52.963Z,3.60
2022-12-26T06:07:24.781Z,3.60
2022-12-26T06:09:56.557Z,3.60
2022-12-26T06:12:28.356Z,3.70
2022-12-26T06:15:00.140Z,3.70
2022-12-26T06:17:31.950Z,3.70
2022-12-26T06:20:04.001Z,3.70
2022-12-26T06:22:38.308Z,3.70
2022-12-26T06:25:10.117Z,3.70
2022-12-26T06:27:42.888Z,3.80
2022-12-26T06:30:14.645Z,3.70
2022-12-26T06:32:46.425Z,3.80
2022-12-26T06:35:18.240Z,3.80
2022-12-26T06:37:50.053Z,3.80
2022-12-26T06:40:21.807Z,3.80
2022-12-26T06:42:53.631Z,3.80
2022-12-26T06:45:25.394Z,3.80
2022-12-26T06:47:57.198Z,3.80
2022-12-26T06:50:28.965Z,3.90
2022-12-26T06:53:00.788Z,3.90
2022-12-26T06:55:32.530Z,3.90
2022-12-26T06:58:04.318Z,3.90
2022-12-26T07:00:36.147Z,3.90
2022-12-26T07:03:08.106Z,3.90
2022-12-26T07:05:39.891Z,3.90
2022-12-26T07:08:11.670Z,4.00
2022-12-26T07:10:43.405Z,3.90
2022-12-26T07:13:15.238Z,4.00
2022-12-26T07:15:49.119Z,4.00
2022-12-26T07:18:21.033Z,4.00
2022-12-26T07:20:52.771Z,4.00
2022-12-26T07:23:24.595Z,4.00
2022-12-26T07:25:56.375Z,4.00
2022-12-26T07:28:28.596Z,4.00
2022-12-26T07:31:00.867Z,4.10
2022-12-26T07:33:32.831Z,4.10
2022-12-26T07:36:05.675Z,4.10
2022-12-26T07:38:39.606Z,4.10
2022-12-26T07:41:30.279Z,4.10
2022-12-26T07:44:02.091Z,4.20
2022-12-26T07:46:33.985Z,4.20
2022-12-26T07:49:08.654Z,4.20
2022-12-26T07:51:40.966Z,4.20
2022-12-26T07:54:13.080Z,4.20
2022-12-26T07:56:45.187Z,4.20
2022-12-26T07:59:17.891Z,4.30
2022-12-26T08:01:49.875Z,4.30
2022-12-26T08:04:24.068Z,4.30
2022-12-26T08:06:55.820Z,4.30
2022-12-26T08:09:30.469Z,4.40
2022-12-26T08:12:02.243Z,4.40
2022-12-26T08:14:34.149Z,4.40
2022-12-26T08:17:05.962Z,4.40
2022-12-26T08:19:38.159Z,4.40
2022-12-26T08:22:10.618Z,4.50
2022-12-26T08:24:42.454Z,4.50
2022-12-26T08:27:14.294Z,4.50
2022-12-26T08:29:47.461Z,4.50
2022-12-26T08:32:19.237Z,4.50
2022-12-26T08:34:51.043Z,4.50
2022-12-26T08:37:25.969Z,4.50
2022-12-26T08:39:57.984Z,4.60
2022-12-26T08:42:29.778Z,4.60
2022-12-26T08:45:01.603Z,4.60
2022-12-26T08:47:33.398Z,4.60
2022-12-26T08:50:05.632Z,4.60
2022-12-26T08:52:37.562Z,4.60
2022-12-26T08:55:09.983Z,4.60
2022-12-26T08:57:41.728Z,4.60
2022-12-26T09:00:13.849Z,4.60
2022-12-26T09:02:45.738Z,4.70
2022-12-26T09:05:20.121Z,4.60
2022-12-26T09:07:51.937Z,4.70
2022-12-26T09:10:23.820Z,4.70
2022-12-26T09:12:55.653Z,4.70
2022-12-26T09:15:28.861Z,4.70
2022-12-26T09:18:00.626Z,4.80
2022-12-26T09:20:33.125Z,4.80
2022-12-26T09:23:04.978Z,4.80
2022-12-26T09:25:36.854Z,4.80
2022-12-26T09:28:08.597Z,4.80
2022-12-26T09:30:40.411Z,4.90
2022-12-26T09:33:12.213Z,4.90
2022-12-26T09:35:44.051Z,4.90
2022-12-26T09:38:18.197Z,5.00
2022-12-26T09:41:05.627Z,5.00
2022-12-26T09:43:42.822Z,5.00
2022-12-26T09:46:40.982Z,5.00
2022-12-26T09:49:16.742Z,5.00
2022-12-26T09:51:52.690Z,5.10
2022-12-26T09:54:29.872Z,5.10
2022-12-26T09:57:15.577Z,5.10
2022-12-26T09:59:52.760Z,5.20
2022-12-26T10:02:26.145Z,5.20
2022-12-26T10:04:58.025Z,5.20
2022-12-26T10:07:48.514Z,5.20
2022-12-26T10:10:20.236Z,5.30
2022-12-26T10:13:08.254Z,5.30
2022-12-26T10:15:49.105Z,5.40
2022-12-26T10:18:20.904Z,5.40
2022-12-26T10:21:11.608Z,5.50
2022-12-26T10:23:49.166Z,5.50
2022-12-26T10:26:29.911Z,5.50
2022-12-26T10:29:01.872Z,5.50
2022-12-26T10:31:39.469Z,5.60
2022-12-26T10:34:17.433Z,5.60
2022-12-26T10:36:50.720Z,5.60
2022-12-26T10:39:27.929Z,5.70
2022-12-26T10:42:02.502Z,5.70
2022-12-26T10:44:34.413Z,5.80
2022-12-26T10:47:15.171Z,5.80
2022-12-26T10:49:47.738Z,5.90
2022-12-26T10:52:22.654Z,6.00
2022-12-26T10:55:28.828Z,6.10
2022-12-26T10:57:50.084Z,6.20
2022-12-26T11:00:26.312Z,6.20
2022-12-26T11:03:08.713Z,6.20
2022-12-26T11:08:43.784Z,6.20
2022-12-26T11:11:46.246Z,6.30
2022-12-26T11:14:34.330Z,6.30
2022-12-26T11:17:08.414Z,6.50
2022-12-26T11:19:41.778Z,6.50
2022-12-26T11:22:27.739Z,6.60
2022-12-26T11:25:11.768Z,6.70
2022-12-26T11:27:47.255Z,6.80
2022-12-26T11:30:29.344Z,6.90
2022-12-26T11:33:24.522Z,7.00
2022-12-26T11:36:05.427Z,7.10
2022-12-26T11:38:45.590Z,7.10
2022-12-26T11:41:32.424Z,7.30
2022-12-26T11:44:12.705Z,7.40
2022-12-26T11:46:59.015Z,7.40
2022-12-26T11:49:37.866Z,7.50
2022-12-26T11:52:28.547Z,7.60
2022-12-26T11:55:03.210Z,7.60
2022-12-26T11:57:35.084Z,7.60
2022-12-26T12:00:17.158Z,7.50
2022-12-26T12:02:51.428Z,7.50
2022-12-26T12:05:41.547Z,7.50
2022-12-26T12:08:24.844Z,7.50
2022-12-26T12:11:00.198Z,7.50
2022-12-26T12:13:50.894Z,7.50
2022-12-26T12:16:31.893Z,7.50
2022-12-26T12:19:15.230Z,7.50
2022-12-26T12:21:58.533Z,7.40
2022-12-26T12:24:41.648Z,7.40
2022-12-26T12:27:42.154Z,7.40
2022-12-26T12:30:17.201Z,7.40
2022-12-26T12:32:58.045Z,7.40
2022-12-26T12:35:32.698Z,7.40
2022-12-26T12:38:24.682Z,7.40
2022-12-26T12:41:12.167Z,7.40
2022-12-26T12:43:49.993Z,7.40
2022-12-26T12:46:23.981Z,7.40
2022-12-26T12:49:06.930Z,7.40
2022-12-26T12:51:44.575Z,7.40
2022-12-26T12:54:34.907Z,7.40
2022-12-26T12:57:09.549Z,7.30
2022-12-26T12:59:46.432Z,7.30
2022-12-26T13:02:22.969Z,7.30
2022-12-26T13:04:59.733Z,7.30
2022-12-26T13:07:34.600Z,7.30
2022-12-26T13:10:13.083Z,7.30
2022-12-26T13:12:47.470Z,7.30
2022-12-26T13:15:19.315Z,7.20
2022-12-26T13:18:11.813Z,7.20
2022-12-26T13:20:45.410Z,7.20
2022-12-26T13:23:43.227Z,7.20
2022-12-26T13:26:17.374Z,7.20
2022-12-26T13:28:53.323Z,7.20
2022-12-26T13:31:25.222Z,7.10
2022-12-26T13:33:57.234Z,7.10
2022-12-26T13:36:40.287Z,7.10
2022-12-26T13:39:14.556Z,7.10
2022-12-26T13:42:08.079Z,7.10
2022-12-26T13:44:39.959Z,7.10
2022-12-26T13:47:30.155Z,7.00
2022-12-26T13:50:23.369Z,7.00
2022-12-26T13:52:55.282Z,7.00
2022-12-26T13:55:41.018Z,7.00
2022-12-26T13:58:35.848Z,7.00
2022-12-26T14:01:07.779Z,7.00
2022-12-26T14:04:06.176Z,7.00
2022-12-26T14:06:58.994Z,7.00
2022-12-26T14:09:44.998Z,7.00
2022-12-26T14:12:37.038Z,7.00
2022-12-26T14:15:17.884Z,6.90
2022-12-26T14:18:06.359Z,6.90
2022-12-26T14:20:44.330Z,6.90
2022-12-26T14:23:16.094Z,6.90
2022-12-26T14:25:51.074Z,6.90
2022-12-26T14:28:41.851Z,6.90
2022-12-26T14:33:51.131Z,6.80
2022-12-26T14:36:41.729Z,6.80
2022-12-26T14:39:18.607Z,6.80
2022-12-26T14:42:33.977Z,6.80
2022-12-26T14:45:12.483Z,6.80
2022-12-26T14:47:44.411Z,6.80
2022-12-26T14:50:34.581Z,6.80
2022-12-26T14:53:24.664Z,6.80
2022-12-26T14:55:56.597Z,6.80
2022-12-26T14:58:31.580Z,6.80
2022-12-26T15:01:09.914Z,6.70
2022-12-26T15:03:57.087Z,6.80
2022-12-26T15:06:40.860Z,6.80
2022-12-26T15:09:12.635Z,6.70
2022-12-26T15:11:44.424Z,6.80
2022-12-26T15:14:28.298Z,6.70
2022-12-26T15:17:00.096Z,6.70
2022-12-26T15:19:49.323Z,6.70
2022-12-26T15:22:36.443Z,6.70
2022-12-26T15:25:19.359Z,6.70
2022-12-26T15:27:57.824Z,6.70
2022-12-26T15:30:48.623Z,6.70
2022-12-26T15:33:20.410Z,6.70
2022-12-26T15:36:12.433Z,6.70
2022-12-26T15:39:03.626Z,6.70
2022-12-26T15:41:50.506Z,6.70
2022-12-26T15:44:40.547Z,6.70
2022-12-26T15:47:23.350Z,6.70
2022-12-26T15:49:57.946Z,6.70
2022-12-26T15:52:41.157Z,6.70
2022-12-26T15:55:19.879Z,6.70
2022-12-26T15:57:54.721Z,6.70
2022-12-26T16:00:29.568Z,6.70
2022-12-26T16:03:22.405Z,6.70
2022-12-26T16:06:00.221Z,6.80
2022-12-26T16:08:45.066Z,6.80
2022-12-26T16:11:18.825Z,6.80
2022-12-26T16:13:55.227Z,6.80
2022-12-26T16:16:34.395Z,6.80
2022-12-26T16:19:37.881Z,6.80
2022-12-26T16:22:43.078Z,6.80
2022-12-26T16:25:25.057Z,6.80
2022-12-26T16:28:01.706Z,6.80
2022-12-26T16:30:36.207Z,6.80
2022-12-26T16:33:11.679Z,6.80
2022-12-26T16:35:43.721Z,6.90
2022-12-26T16:38:17.381Z,6.90
2022-12-26T16:40:50.524Z,6.90
2022-12-26T16:43:22.294Z,6.90
2022-12-26T16:46:00.241Z,6.90
2022-12-26T16:48:33.227Z,6.90
2022-12-26T16:51:06.908Z,6.90
2022-12-26T16:53:38.657Z,6.90
2022-12-26T16:56:10.429Z,7.00
2022-12-26T16:58:42.201Z,6.90
2022-12-26T17:01:18.751Z,6.90
2022-12-26T17:03:53.283Z,6.90
2022-12-26T17:06:29.856Z,6.90
2022-12-26T17:09:09.599Z,6.90
2022-12-26T17:11:51.583Z,6.90
2022-12-26T17:14:36.419Z,6.90
2022-12-26T17:17:25.995Z,6.90
2022-12-26T17:19:58.865Z,6.90
2022-12-26T17:22:35.098Z,6.90
2022-12-26T17:25:26.615Z,6.90
2022-12-26T17:28:18.895Z,6.90
2022-12-26T17:30:53.412Z,6.90
2022-12-26T17:33:27.043Z,6.90
2022-12-26T17:36:52.287Z,7.00
2022-12-26T17:38:55.029Z,6.90
2022-12-26T17:41:26.841Z,6.90
2022-12-26T17:43:58.699Z,6.90
2022-12-26T17:46:30.516Z,7.00
2022-12-26T17:49:02.351Z,6.90
2022-12-26T17:51:34.536Z,6.90
2022-12-26T17:54:08.760Z,6.90
2022-12-26T17:56:42.612Z,7.00
2022-12-26T17:59:14.569Z,7.00
2022-12-26T18:01:46.468Z,6.90
2022-12-26T18:04:20.773Z,6.90
2022-12-26T18:06:52.605Z,6.90
2022-12-26T18:09:29.258Z,6.90
2022-12-26T18:12:03.529Z,6.90
2022-12-26T18:14:35.403Z,6.90
2022-12-26T18:17:07.790Z,6.90
2022-12-26T18:19:39.641Z,6.90
2022-12-26T18:22:13.315Z,6.80
2022-12-26T18:24:45.249Z,6.80
2022-12-26T18:27:22.956Z,6.80
2022-12-26T18:29:57.037Z,6.80
2022-12-26T18:32:30.349Z,6.80
2022-12-26T18:35:02.231Z,6.80
2022-12-26T18:37:33.996Z,6.80
2022-12-26T18:40:06.170Z,6.80
2022-12-26T18:42:40.172Z,6.80
2022-12-26T18:45:12.041Z,6.80
2022-12-26T18:47:43.898Z,6.80
2022-12-26T18:50:18.441Z,6.80
2022-12-26T18:52:53.947Z,6.80
2022-12-26T18:55:26.652Z,6.80
2022-12-26T18:57:59.157Z,6.80
2022-12-26T19:00:31.152Z,6.80
2022-12-26T19:03:02.985Z,6.80
2022-12-26T19:05:37.249Z,6.80
2022-12-26T19:08:13.428Z,6.80
2022-12-26T19:10:47.485Z,6.80
2022-12-26T19:13:19.463Z,6.80
2022-12-26T19:15:51.466Z,6.80
2022-12-26T19:18:25.741Z,6.80
2022-12-26T19:20:57.827Z,6.80
2022-12-26T19:23:31.776Z,6.80
2022-12-26T19:26:08.572Z,6.90
2022-12-26T19:28:40.531Z,6.90
2022-12-26T19:31:14.259Z,6.90
2022-12-26T19:33:46.224Z,6.90
2022-12-26T19:36:20.488Z,6.90
2022-12-26T19:38:52.970Z,6.90
2022-12-26T19:41:24.882Z,6.90
2022-12-26T19:43:57.461Z,6.90
2022-12-26T19:46:29.365Z,7.00
2022-12-26T19:49:01.203Z,7.00
2022-12-26T19:51:35.580Z,7.00
2022-12-26T19:54:07.534Z,7.00
2022-12-26T19:56:39.409Z,7.00
2022-12-26T19:59:13.539Z,7.00
2022-12-26T20:01:45.810Z,7.00
2022-12-26T20:04:17.895Z,7.00
2022-12-26T20:06:49.754Z,7.00
2022-12-26T20:09:21.537Z,7.00
2022-12-26T20:11:56.113Z,6.90
2022-12-26T20:14:27.926Z,6.90
2022-12-26T20:17:06.223Z,6.80
2022-12-26T20:19:41.064Z,6.80
2022-12-26T20:22:13.237Z,6.80
2022-12-26T20:24:46.876Z,6.80
2022-12-26T20:27:19.059Z,6.90
2022-12-26T20:29:50.831Z,6.80
2022-12-26T20:32:25.031Z,6.90
2022-12-26T20:34:56.816Z,6.90
2022-12-26T20:37:28.734Z,7.00
2022-12-26T20:40:01.191Z,7.00
2022-12-26T20:42:32.981Z,7.00
2022-12-26T20:45:05.087Z,7.00
2022-12-26T20:47:36.933Z,7.00
2022-12-26T20:50:08.911Z,7.00
2022-12-26T20:52:42.877Z,7.00
2022-12-26T20:55:16.528Z,7.00
2022-12-26T20:57:48.376Z,7.00
2022-12-26T21:00:20.188Z,7.00
2022-12-26T21:02:53.414Z,6.90
2022-12-26T21:05:27.628Z,7.00
2022-12-26T21:07:59.458Z,6.90
2022-12-26T21:10:33.924Z,6.90
2022-12-26T21:13:05.893Z,6.90
2022-12-26T21:15:37.985Z,6.90
2022-12-26T21:18:09.880Z,6.80
2022-12-26T21:20:41.721Z,6.80
2022-12-26T21:23:13.623Z,6.80
2022-12-26T21:25:45.428Z,6.70
2022-12-26T21:28:17.448Z,6.70
2022-12-26T21:30:49.282Z,6.60
2022-12-26T21:33:21.605Z,6.50
2022-12-26T21:35:54.849Z,6.50
2022-12-26T21:38:29.147Z,6.40
2022-12-26T21:41:00.982Z,6.30
2022-12-26T21:43:32.830Z,6.30
2022-12-26T21:46:09.020Z,6.20
2022-12-26T21:48:47.380Z,6.00
2022-12-26T21:51:20.869Z,5.90
2022-12-26T21:54:12.827Z,5.80
2022-12-26T21:56:44.690Z,5.80
2022-12-26T21:59:35.014Z,5.70
2022-12-26T22:02:26.944Z,5.60
2022-12-26T22:04:59.423Z,5.60
2022-12-26T22:07:31.179Z,5.50
2022-12-26T22:10:06.844Z,5.40
2022-12-26T22:12:56.822Z,5.30
2022-12-26T22:15:47.121Z,5.30
2022-12-26T22:18:21.189Z,5.20
2022-12-26T22:20:53.045Z,5.10
2022-12-26T22:23:24.908Z,5.10
2022-12-26T22:25:56.955Z,5.10
2022-12-26T22:28:30.602Z,5.00
2022-12-26T22:31:02.595Z,5.00
2022-12-26T22:33:36.638Z,5.00
2022-12-26T22:36:10.696Z,4.90
2022-12-26T22:38:42.454Z,4.90
2022-12-26T22:41:14.272Z,4.90
2022-12-26T22:43:48.382Z,4.90
2022-12-26T22:46:22.616Z,4.80
2022-12-26T22:48:54.474Z,4.80
2022-12-26T22:51:26.907Z,4.70
2022-12-26T22:54:04.302Z,4.60
2022-12-26T22:56:36.164Z,4.60
2022-12-26T22:59:07.938Z,4.60
2022-12-26T23:01:39.878Z,4.60
2022-12-26T23:04:12.900Z,4.60
2022-12-26T23:06:45.022Z,4.70
2022-12-26T23:09:17.377Z,4.60
2022-12-26T23:12:08.084Z,4.70
2022-12-26T23:14:40.008Z,4.70
2022-12-26T23:17:34.890Z,4.60
2022-12-26T23:20:30.161Z,4.60
2022-12-26T23:23:02.265Z,4.50
2022-12-26T23:25:34.111Z,4.40
2022-12-26T23:28:24.606Z,4.30
2022-12-26T23:30:57.174Z,4.30
2022-12-26T23:33:29.789Z,4.20
2022-12-26T23:36:01.674Z,4.20
2022-12-26T23:38:33.523Z,4.10
2022-12-26T23:41:07.920Z,4.20
2022-12-26T23:43:39.717Z,4.20
2022-12-26T23:46:11.592Z,4.20
2022-12-26T23:48:43.510Z,4.20
2022-12-26T23:51:18.123Z,4.20
2022-12-26T23:53:52.189Z,4.20
2022-12-26T23:56:27.805Z,4.20
2022-12-26T23:58:59.584Z,4.20
